sensor_id;sensor_type;location;lat;lon;timestamp;pressure;altitude;pressure_sealevel;temperature;humidity
30339;BME280;795;49.296;11.348;2023-03-25T00:00:17;95671.63;;;7.43;100.00
30339;BME280;795;49.296;11.348;2023-03-25T00:02:49;95691.78;;;7.70;100.00
30339;BME280;795;49.296;11.348;2023-03-25T00:05:20;95654.25;;;7.31;100.00
30339;BME280;795;49.296;11.348;2023-03-25T00:07:51;95612.72;;;6.96;100.00
30339;BME280;795;49.296;11.348;2023-03-25T00:10:19;95562.03;;;6.56;100.00
30339;BME280;795;49.296;11.348;2023-03-25T00:12:46;95685.78;;;7.19;100.00
30339;BME280;795;49.296;11.348;2023-03-25T00:15:14;95630.56;;;6.88;100.00
30339;BME280;795;49.296;11.348;2023-03-25T00:17:42;95668.09;;;7.10;100.00
30339;BME280;795;49.296;11.348;2023-03-25T00:20:11;95571.31;;;6.36;100.00
30339;BME280;795;49.296;11.348;2023-03-25T00:22:40;95656.41;;;6.95;100.00
30339;BME280;795;49.296;11.348;2023-03-25T00:25:14;95670.59;;;7.04;100.00
30339;BME280;795;49.296;11.348;2023-03-25T00:27:45;95565.00;;;6.37;100.00
30339;BME280;795;49.296;11.348;2023-03-25T00:30:16;95570.16;;;6.38;100.00
30339;BME280;795;49.296;11.348;2023-03-25T00:32:45;95613.38;;;6.66;100.00
30339;BME280;795;49.296;11.348;2023-03-25T00:35:17;95658.41;;;6.93;100.00
30339;BME280;795;49.296;11.348;2023-03-25T00:37:51;95608.03;;;6.66;100.00
30339;BME280;795;49.296;11.348;2023-03-25T00:40:24;95635.03;;;6.79;100.00
30339;BME280;795;49.296;11.348;2023-03-25T00:42:54;95623.03;;;6.75;100.00
30339;BME280;795;49.296;11.348;2023-03-25T00:45:22;95666.41;;;7.17;100.00
30339;BME280;795;49.296;11.348;2023-03-25T00:47:49;95671.13;;;7.23;100.00
30339;BME280;795;49.296;11.348;2023-03-25T00:50:16;95626.06;;;7.12;100.00
30339;BME280;795;49.296;11.348;2023-03-25T00:52:43;95534.69;;;6.62;100.00
30339;BME280;795;49.296;11.348;2023-03-25T00:55:10;95658.25;;;7.43;100.00
30339;BME280;795;49.296;11.348;2023-03-25T00:57:37;95615.06;;;7.23;100.00
30339;BME280;795;49.296;11.348;2023-03-25T01:00:14;95656.91;;;7.55;100.00
30339;BME280;795;49.296;11.348;2023-03-25T01:02:42;95622.19;;;7.39;100.00
30339;BME280;795;49.296;11.348;2023-03-25T01:05:10;95662.75;;;7.59;100.00
30339;BME280;795;49.296;11.348;2023-03-25T01:07:39;95669.06;;;7.74;100.00
30339;BME280;795;49.296;11.348;2023-03-25T01:10:08;95662.56;;;7.68;100.00
30339;BME280;795;49.296;11.348;2023-03-25T01:12:35;95683.25;;;7.66;100.00
30339;BME280;795;49.296;11.348;2023-03-25T01:15:02;95599.72;;;7.09;100.00
30339;BME280;795;49.296;11.348;2023-03-25T01:17:29;95602.22;;;6.95;100.00
30339;BME280;795;49.296;11.348;2023-03-25T01:19:56;95594.03;;;6.96;100.00
30339;BME280;795;49.296;11.348;2023-03-25T01:22:23;95644.75;;;7.04;100.00
30339;BME280;795;49.296;11.348;2023-03-25T01:24:50;95631.06;;;7.07;100.00
30339;BME280;795;49.296;11.348;2023-03-25T01:27:17;95595.88;;;6.80;100.00
30339;BME280;795;49.296;11.348;2023-03-25T01:29:44;95644.72;;;7.12;100.00
30339;BME280;795;49.296;11.348;2023-03-25T01:32:11;95625.72;;;6.99;100.00
30339;BME280;795;49.296;11.348;2023-03-25T01:34:38;95549.50;;;6.48;100.00
30339;BME280;795;49.296;11.348;2023-03-25T01:37:05;95625.38;;;6.86;100.00
30339;BME280;795;49.296;11.348;2023-03-25T01:39:33;95645.06;;;6.93;100.00
30339;BME280;795;49.296;11.348;2023-03-25T01:42:00;95660.22;;;6.93;100.00
30339;BME280;795;49.296;11.348;2023-03-25T01:46:59;95597.28;;;6.42;100.00
30339;BME280;795;49.296;11.348;2023-03-25T01:49:40;95636.00;;;6.54;100.00
30339;BME280;795;49.296;11.348;2023-03-25T01:52:21;95613.81;;;6.45;100.00
30339;BME280;795;49.296;11.348;2023-03-25T01:54:53;95664.56;;;6.78;100.00
30339;BME280;795;49.296;11.348;2023-03-25T01:57:23;95662.72;;;6.78;100.00
30339;BME280;795;49.296;11.348;2023-03-25T01:59:53;95594.78;;;6.32;100.00
30339;BME280;795;49.296;11.348;2023-03-25T02:02:22;95629.66;;;6.55;100.00
30339;BME280;795;49.296;11.348;2023-03-25T02:05:19;95597.81;;;6.45;100.00
30339;BME280;795;49.296;11.348;2023-03-25T02:07:49;95600.97;;;6.41;100.00
30339;BME280;795;49.296;11.348;2023-03-25T02:10:18;95617.34;;;6.54;100.00
30339;BME280;795;49.296;11.348;2023-03-25T02:12:45;95614.19;;;6.66;100.00
30339;BME280;795;49.296;11.348;2023-03-25T02:15:17;95592.81;;;6.42;100.00
30339;BME280;795;49.296;11.348;2023-03-25T02:28:02;95637.88;;;6.78;100.00
30339;BME280;795;49.296;11.348;2023-03-25T02:34:40;95629.03;;;6.77;100.00
30339;BME280;795;49.296;11.348;2023-03-25T02:38:02;95634.69;;;6.74;100.00
30339;BME280;795;49.296;11.348;2023-03-25T02:46:18;95644.38;;;6.83;100.00
30339;BME280;795;49.296;11.348;2023-03-25T02:49:12;95617.34;;;6.62;100.00
30339;BME280;795;49.296;11.348;2023-03-25T02:51:53;95619.69;;;6.65;100.00
30339;BME280;795;49.296;11.348;2023-03-25T02:54:26;95649.53;;;6.77;100.00
30339;BME280;795;49.296;11.348;2023-03-25T02:56:58;95643.72;;;6.81;100.00
30339;BME280;795;49.296;11.348;2023-03-25T02:59:30;95535.28;;;6.08;100.00
30339;BME280;795;49.296;11.348;2023-03-25T03:02:04;95641.06;;;6.73;100.00
30339;BME280;795;49.296;11.348;2023-03-25T03:04:55;95625.50;;;6.68;100.00
30339;BME280;795;49.296;11.348;2023-03-25T03:07:34;95606.00;;;6.60;100.00
30339;BME280;795;49.296;11.348;2023-03-25T03:10:25;95574.81;;;6.44;100.00
30339;BME280;795;49.296;11.348;2023-03-25T03:13:34;95554.47;;;6.35;100.00
30339;BME280;795;49.296;11.348;2023-03-25T03:16:23;95628.38;;;6.83;100.00
30339;BME280;795;49.296;11.348;2023-03-25T03:22:27;95568.84;;;6.50;100.00
30339;BME280;795;49.296;11.348;2023-03-25T03:27:58;95635.22;;;6.86;100.00
30339;BME280;795;49.296;11.348;2023-03-25T03:31:06;95616.88;;;6.75;100.00
30339;BME280;795;49.296;11.348;2023-03-25T03:34:03;95610.72;;;6.66;100.00
30339;BME280;795;49.296;11.348;2023-03-25T03:36:46;95611.50;;;6.66;100.00
30339;BME280;795;49.296;11.348;2023-03-25T03:39:34;95620.03;;;6.70;100.00
30339;BME280;795;49.296;11.348;2023-03-25T03:42:34;95547.25;;;6.03;100.00
30339;BME280;795;49.296;11.348;2023-03-25T03:45:15;95650.22;;;6.71;100.00
30339;BME280;795;49.296;11.348;2023-03-25T03:47:51;95621.69;;;6.63;100.00
30339;BME280;795;49.296;11.348;2023-03-25T03:50:28;95614.19;;;6.66;100.00
30339;BME280;795;49.296;11.348;2023-03-25T03:53:14;95558.97;;;6.35;100.00
30339;BME280;795;49.296;11.348;2023-03-25T03:56:14;95633.03;;;6.65;100.00
30339;BME280;795;49.296;11.348;2023-03-25T03:58:47;95621.03;;;6.69;100.00
30339;BME280;795;49.296;11.348;2023-03-25T04:01:29;95641.03;;;6.81;100.00
30339;BME280;795;49.296;11.348;2023-03-25T04:04:09;95618.06;;;6.80;100.00
30339;BME280;795;49.296;11.348;2023-03-25T04:07:05;95566.34;;;6.49;100.00
30339;BME280;795;49.296;11.348;2023-03-25T04:10:13;95542.81;;;6.36;100.00
30339;BME280;795;49.296;11.348;2023-03-25T04:12:50;95535.16;;;6.33;100.00
30339;BME280;795;49.296;11.348;2023-03-25T04:15:18;95589.69;;;6.79;100.00
30339;BME280;795;49.296;11.348;2023-03-25T04:17:45;95538.00;;;6.48;100.00
30339;BME280;795;49.296;11.348;2023-03-25T04:20:23;95609.38;;;6.86;100.00
30339;BME280;795;49.296;11.348;2023-03-25T04:22:52;95595.53;;;6.75;100.00
30339;BME280;795;49.296;11.348;2023-03-25T04:25:19;95565.31;;;6.50;100.00
30339;BME280;795;49.296;11.348;2023-03-25T04:27:51;95646.06;;;7.00;100.00
30339;BME280;795;49.296;11.348;2023-03-25T04:30:19;95648.56;;;6.94;100.00
30339;BME280;795;49.296;11.348;2023-03-25T04:32:47;95632.03;;;6.66;100.00
30339;BME280;795;49.296;11.348;2023-03-25T04:35:15;95553.22;;;6.06;100.00
30339;BME280;795;49.296;11.348;2023-03-25T04:37:47;95589.75;;;6.21;100.00
30339;BME280;795;49.296;11.348;2023-03-25T04:40:20;95593.06;;;6.07;100.00
30339;BME280;795;49.296;11.348;2023-03-25T04:42:47;95656.59;;;6.36;100.00
30339;BME280;795;49.296;11.348;2023-03-25T04:45:15;95574.00;;;5.86;100.00
30339;BME280;795;49.296;11.348;2023-03-25T04:47:48;95678.97;;;6.43;100.00
30339;BME280;795;49.296;11.348;2023-03-25T04:50:27;95681.78;;;6.41;100.00
30339;BME280;795;49.296;11.348;2023-03-25T04:52:56;95684.78;;;6.38;100.00
30339;BME280;795;49.296;11.348;2023-03-25T04:55:23;95618.03;;;6.06;100.00
30339;BME280;795;49.296;11.348;2023-03-25T04:57:53;95654.75;;;6.28;100.00
30339;BME280;795;49.296;11.348;2023-03-25T05:00:23;95518.88;;;5.45;100.00
30339;BME280;795;49.296;11.348;2023-03-25T05:02:55;95560.69;;;5.60;100.00
30339;BME280;795;49.296;11.348;2023-03-25T05:05:24;95659.53;;;6.17;100.00
30339;BME280;795;49.296;11.348;2023-03-25T05:07:54;95586.13;;;5.55;100.00
30339;BME280;795;49.296;11.348;2023-03-25T05:10:25;95667.19;;;6.12;100.00
30339;BME280;795;49.296;11.348;2023-03-25T05:13:05;95675.00;;;6.13;100.00
30339;BME280;795;49.296;11.348;2023-03-25T05:15:35;95608.13;;;5.57;100.00
30339;BME280;795;49.296;11.348;2023-03-25T05:18:08;95584.16;;;5.57;100.00
30339;BME280;795;49.296;11.348;2023-03-25T05:20:37;95602.78;;;5.57;100.00
30339;BME280;795;49.296;11.348;2023-03-25T05:23:11;95684.88;;;6.21;100.00
30339;BME280;795;49.296;11.348;2023-03-25T05:25:47;95663.53;;;6.21;100.00
30339;BME280;795;49.296;11.348;2023-03-25T05:28:17;95683.44;;;6.42;100.00
30339;BME280;795;49.296;11.348;2023-03-25T05:30:46;95688.31;;;6.55;100.00
30339;BME280;795;49.296;11.348;2023-03-25T05:33:16;95671.00;;;6.51;100.00
30339;BME280;795;49.296;11.348;2023-03-25T05:35:45;95687.00;;;6.59;100.00
30339;BME280;795;49.296;11.348;2023-03-25T05:38:14;95647.94;;;6.34;100.00
30339;BME280;795;49.296;11.348;2023-03-25T05:40:46;95668.28;;;6.43;100.00
30339;BME280;795;49.296;11.348;2023-03-25T05:43:15;95615.72;;;6.11;100.00
30339;BME280;795;49.296;11.348;2023-03-25T05:45:42;95702.38;;;6.65;100.00
30339;BME280;795;49.296;11.348;2023-03-25T05:48:10;95638.09;;;6.26;100.00
30339;BME280;795;49.296;11.348;2023-03-25T05:50:37;95705.38;;;6.70;100.00
30339;BME280;795;49.296;11.348;2023-03-25T05:53:14;95605.06;;;6.11;100.00
30339;BME280;795;49.296;11.348;2023-03-25T05:55:41;95632.25;;;6.31;100.00
30339;BME280;795;49.296;11.348;2023-03-25T05:58:08;95675.19;;;6.69;100.00
30339;BME280;795;49.296;11.348;2023-03-25T06:00:35;95714.09;;;6.80;100.00
30339;BME280;795;49.296;11.348;2023-03-25T06:03:06;95629.28;;;6.42;100.00
30339;BME280;795;49.296;11.348;2023-03-25T06:05:34;95670.53;;;6.63;100.00
30339;BME280;795;49.296;11.348;2023-03-25T06:08:01;95643.31;;;6.44;100.00
30339;BME280;795;49.296;11.348;2023-03-25T06:10:28;95610.91;;;6.15;100.00
30339;BME280;795;49.296;11.348;2023-03-25T06:12:55;95674.97;;;6.47;100.00
30339;BME280;795;49.296;11.348;2023-03-25T06:15:22;95624.19;;;6.07;100.00
30339;BME280;795;49.296;11.348;2023-03-25T06:17:59;95715.84;;;6.55;100.00
30339;BME280;795;49.296;11.348;2023-03-25T06:20:26;95710.94;;;6.43;100.00
30339;BME280;795;49.296;11.348;2023-03-25T06:22:53;95706.63;;;6.50;100.00
30339;BME280;795;49.296;11.348;2023-03-25T06:25:20;95628.91;;;6.21;100.00
30339;BME280;795;49.296;11.348;2023-03-25T06:27:49;95718.81;;;7.02;100.00
30339;BME280;795;49.296;11.348;2023-03-25T06:30:20;95669.06;;;6.77;100.00
30339;BME280;795;49.296;11.348;2023-03-25T06:32:47;95625.16;;;6.39;100.00
30339;BME280;795;49.296;11.348;2023-03-25T06:35:18;95678.72;;;6.70;100.00
30339;BME280;795;49.296;11.348;2023-03-25T06:37:48;95651.69;;;6.65;100.00
30339;BME280;795;49.296;11.348;2023-03-25T06:40:15;95590.00;;;6.52;100.00
30339;BME280;795;49.296;11.348;2023-03-25T06:42:43;95690.63;;;7.16;100.00
30339;BME280;795;49.296;11.348;2023-03-25T06:45:10;95711.13;;;7.31;100.00
30339;BME280;795;49.296;11.348;2023-03-25T06:47:38;95656.06;;;6.82;100.00
30339;BME280;795;49.296;11.348;2023-03-25T06:50:06;95682.25;;;6.95;100.00
30339;BME280;795;49.296;11.348;2023-03-25T06:52:34;95705.75;;;6.91;100.00
30339;BME280;795;49.296;11.348;2023-03-25T06:55:02;95723.66;;;7.63;100.00
30339;BME280;795;49.296;11.348;2023-03-25T06:57:28;95599.88;;;7.08;100.00
30339;BME280;795;49.296;11.348;2023-03-25T06:59:55;95700.31;;;7.57;100.00
30339;BME280;795;49.296;11.348;2023-03-25T07:02:22;95608.53;;;6.86;100.00
30339;BME280;795;49.296;11.348;2023-03-25T07:04:49;95650.41;;;7.01;100.00
30339;BME280;795;49.296;11.348;2023-03-25T07:07:16;95667.09;;;7.03;100.00
30339;BME280;795;49.296;11.348;2023-03-25T07:09:43;95596.06;;;6.78;100.00
30339;BME280;795;49.296;11.348;2023-03-25T07:12:10;95725.84;;;7.84;100.00
30339;BME280;795;49.296;11.348;2023-03-25T07:14:37;95661.38;;;7.79;100.00
30339;BME280;795;49.296;11.348;2023-03-25T07:17:04;95714.06;;;8.09;100.00
30339;BME280;795;49.296;11.348;2023-03-25T07:19:31;95684.91;;;7.91;100.00
30339;BME280;795;49.296;11.348;2023-03-25T07:21:58;95615.34;;;7.53;100.00
30339;BME280;795;49.296;11.348;2023-03-25T07:24:25;95684.00;;;8.15;100.00
30339;BME280;795;49.296;11.348;2023-03-25T07:26:52;95730.00;;;8.57;100.00
30339;BME280;795;49.296;11.348;2023-03-25T07:29:19;95691.00;;;8.32;100.00
30339;BME280;795;49.296;11.348;2023-03-25T07:31:46;95718.06;;;8.37;100.00
30339;BME280;795;49.296;11.348;2023-03-25T07:34:13;95637.59;;;8.00;100.00
30339;BME280;795;49.296;11.348;2023-03-25T07:36:41;95637.97;;;7.89;100.00
30339;BME280;795;49.296;11.348;2023-03-25T07:39:08;95709.22;;;8.21;100.00
30339;BME280;795;49.296;11.348;2023-03-25T07:41:35;95690.53;;;8.13;100.00
30339;BME280;795;49.296;11.348;2023-03-25T07:44:02;95634.91;;;8.08;100.00
30339;BME280;795;49.296;11.348;2023-03-25T07:46:29;95717.75;;;8.71;100.00
30339;BME280;795;49.296;11.348;2023-03-25T07:48:56;95713.78;;;8.67;100.00
30339;BME280;795;49.296;11.348;2023-03-25T07:51:23;95676.47;;;8.27;100.00
30339;BME280;795;49.296;11.348;2023-03-25T07:53:50;95734.22;;;8.52;100.00
30339;BME280;795;49.296;11.348;2023-03-25T07:56:17;95690.06;;;8.01;100.00
30339;BME280;795;49.296;11.348;2023-03-25T07:58:44;95767.72;;;8.16;100.00
30339;BME280;795;49.296;11.348;2023-03-25T08:01:12;95720.50;;;7.76;100.00
30339;BME280;795;49.296;11.348;2023-03-25T08:03:38;95629.56;;;6.97;100.00
30339;BME280;795;49.296;11.348;2023-03-25T08:06:07;95751.22;;;7.96;100.00
30339;BME280;795;49.296;11.348;2023-03-25T08:08:34;95749.88;;;7.92;100.00
30339;BME280;795;49.296;11.348;2023-03-25T08:11:01;95673.09;;;7.38;100.00
30339;BME280;795;49.296;11.348;2023-03-25T08:13:29;95726.06;;;8.21;100.00
30339;BME280;795;49.296;11.348;2023-03-25T08:15:56;95729.44;;;9.09;100.00
30339;BME280;795;49.296;11.348;2023-03-25T08:18:24;95693.25;;;10.10;91.15
30339;BME280;795;49.296;11.348;2023-03-25T08:20:51;95717.84;;;10.65;88.81
30339;BME280;795;49.296;11.348;2023-03-25T08:23:19;95731.91;;;10.53;86.54
30339;BME280;795;49.296;11.348;2023-03-25T08:25:49;95709.13;;;10.49;84.05
30339;BME280;795;49.296;11.348;2023-03-25T08:28:20;95731.31;;;10.87;80.48
30339;BME280;795;49.296;11.348;2023-03-25T08:30:56;95704.53;;;10.06;82.30
30339;BME280;795;49.296;11.348;2023-03-25T08:33:25;95658.38;;;10.68;78.96
30339;BME280;795;49.296;11.348;2023-03-25T08:35:56;95707.19;;;10.72;79.01
30339;BME280;795;49.296;11.348;2023-03-25T08:38:23;95719.78;;;10.57;80.37
30339;BME280;795;49.296;11.348;2023-03-25T08:40:51;95746.44;;;11.23;77.59
30339;BME280;795;49.296;11.348;2023-03-25T08:43:18;95705.44;;;10.64;75.21
30339;BME280;795;49.296;11.348;2023-03-25T08:45:45;95742.34;;;10.48;76.19
30339;BME280;795;49.296;11.348;2023-03-25T08:48:14;95720.22;;;10.17;78.60
30339;BME280;795;49.296;11.348;2023-03-25T08:50:43;95701.38;;;11.40;74.24
30339;BME280;795;49.296;11.348;2023-03-25T08:53:10;95728.72;;;11.65;71.73
30339;BME280;795;49.296;11.348;2023-03-25T08:55:37;95708.00;;;11.23;73.14
30339;BME280;795;49.296;11.348;2023-03-25T08:58:06;95718.25;;;11.70;69.73
30339;BME280;795;49.296;11.348;2023-03-25T09:03:35;95713.63;;;12.40;65.66
30339;BME280;795;49.296;11.348;2023-03-25T09:06:05;95690.13;;;11.15;66.73
30339;BME280;795;49.296;11.348;2023-03-25T09:08:34;95666.88;;;10.22;68.81
30339;BME280;795;49.296;11.348;2023-03-25T09:11:03;95646.72;;;9.88;71.58
30339;BME280;795;49.296;11.348;2023-03-25T09:13:30;95695.53;;;10.21;80.50
30339;BME280;795;49.296;11.348;2023-03-25T09:15:57;95666.16;;;9.53;94.13
30339;BME280;795;49.296;11.348;2023-03-25T09:18:24;95664.94;;;9.78;93.41
30339;BME280;795;49.296;11.348;2023-03-25T09:20:58;95693.88;;;11.00;88.55
30339;BME280;795;49.296;11.348;2023-03-25T09:23:25;95676.16;;;11.62;76.14
30339;BME280;795;49.296;11.348;2023-03-25T09:25:53;95662.56;;;12.19;70.31
30339;BME280;795;49.296;11.348;2023-03-25T09:28:20;95687.69;;;12.67;67.71
30339;BME280;795;49.296;11.348;2023-03-25T09:30:47;95709.66;;;12.09;66.63
30339;BME280;795;49.296;11.348;2023-03-25T09:33:14;95677.44;;;11.45;68.43
30339;BME280;795;49.296;11.348;2023-03-25T09:35:41;95707.81;;;11.46;70.64
30339;BME280;795;49.296;11.348;2023-03-25T09:38:08;95648.13;;;10.72;73.68
30339;BME280;795;49.296;11.348;2023-03-25T09:40:35;95666.03;;;10.36;75.75
30339;BME280;795;49.296;11.348;2023-03-25T09:45:47;95730.41;;;10.94;76.74
30339;BME280;795;49.296;11.348;2023-03-25T09:48:41;95732.84;;;12.10;72.02
30339;BME280;795;49.296;11.348;2023-03-25T09:51:28;95675.38;;;12.17;67.87
30339;BME280;795;49.296;11.348;2023-03-25T09:54:27;95727.59;;;12.02;71.92
30339;BME280;795;49.296;11.348;2023-03-25T09:57:06;95609.22;;;11.25;72.33
30339;BME280;795;49.296;11.348;2023-03-25T09:59:48;95734.19;;;11.36;75.03
30339;BME280;795;49.296;11.348;2023-03-25T10:03:17;95710.50;;;10.89;77.83
30339;BME280;795;49.296;11.348;2023-03-25T10:11:52;95668.41;;;9.64;85.15
30339;BME280;795;49.296;11.348;2023-03-25T10:21:42;95691.03;;;13.10;67.29
30339;BME280;795;49.296;11.348;2023-03-25T10:24:38;95707.16;;;14.62;60.93
30339;BME280;795;49.296;11.348;2023-03-25T10:27:34;95706.19;;;15.89;56.40
30339;BME280;795;49.296;11.348;2023-03-25T10:30:17;95701.34;;;14.65;54.19
30339;BME280;795;49.296;11.348;2023-03-25T10:33:01;95693.06;;;14.47;57.11
30339;BME280;795;49.296;11.348;2023-03-25T10:35:46;95705.47;;;13.76;56.20
30339;BME280;795;49.296;11.348;2023-03-25T10:38:21;95689.50;;;13.68;57.07
30339;BME280;795;49.296;11.348;2023-03-25T10:41:11;95657.25;;;11.98;61.49
30339;BME280;795;49.296;11.348;2023-03-25T10:43:43;95671.50;;;11.28;64.00
30339;BME280;795;49.296;11.348;2023-03-25T10:46:39;95645.78;;;11.05;68.08
30339;BME280;795;49.296;11.348;2023-03-25T10:49:20;95669.38;;;11.45;68.73
30339;BME280;795;49.296;11.348;2023-03-25T10:51:51;95643.25;;;11.18;69.74
30339;BME280;795;49.296;11.348;2023-03-25T10:54:40;95614.66;;;10.89;69.59
30339;BME280;795;49.296;11.348;2023-03-25T10:57:19;95660.28;;;11.67;68.86
30339;BME280;795;49.296;11.348;2023-03-25T11:00:13;95559.72;;;11.62;66.46
30339;BME280;795;49.296;11.348;2023-03-25T11:02:46;95608.00;;;12.04;65.68
30339;BME280;795;49.296;11.348;2023-03-25T11:05:22;95639.53;;;12.10;65.09
30339;BME280;795;49.296;11.348;2023-03-25T11:07:57;95595.09;;;11.65;64.06
30339;BME280;795;49.296;11.348;2023-03-25T11:10:46;95605.63;;;11.39;65.14
30339;BME280;795;49.296;11.348;2023-03-25T11:13:14;95611.47;;;11.00;66.20
30339;BME280;795;49.296;11.348;2023-03-25T11:15:43;95671.00;;;11.04;68.35
30339;BME280;795;49.296;11.348;2023-03-25T11:18:26;95632.59;;;10.09;76.99
30339;BME280;795;49.296;11.348;2023-03-25T11:21:02;95597.22;;;8.64;93.15
30339;BME280;795;49.296;11.348;2023-03-25T11:23:42;95640.41;;;8.07;100.00
30339;BME280;795;49.296;11.348;2023-03-25T11:26:23;95650.03;;;7.61;100.00
30339;BME280;795;49.296;11.348;2023-03-25T11:29:00;95622.22;;;7.15;100.00
30339;BME280;795;49.296;11.348;2023-03-25T11:31:34;95605.88;;;6.78;100.00
30339;BME280;795;49.296;11.348;2023-03-25T11:36:54;95625.72;;;6.99;100.00
30339;BME280;795;49.296;11.348;2023-03-25T11:39:38;95646.22;;;7.47;100.00
30339;BME280;795;49.296;11.348;2023-03-25T11:42:39;95710.44;;;10.24;100.00
30339;BME280;795;49.296;11.348;2023-03-25T11:45:30;95708.88;;;10.44;100.00
30339;BME280;795;49.296;11.348;2023-03-25T11:48:20;95619.88;;;9.59;100.00
30339;BME280;795;49.296;11.348;2023-03-25T11:51:02;95629.03;;;10.31;100.00
30339;BME280;795;49.296;11.348;2023-03-25T11:53:32;95617.72;;;10.86;100.00
30339;BME280;795;49.296;11.348;2023-03-25T11:56:10;95656.44;;;11.34;100.00
30339;BME280;795;49.296;11.348;2023-03-25T11:58:40;95590.94;;;11.63;100.00
30339;BME280;795;49.296;11.348;2023-03-25T12:01:23;95645.38;;;11.22;100.00
30339;BME280;795;49.296;11.348;2023-03-25T12:04:07;95652.84;;;10.70;100.00
30339;BME280;795;49.296;11.348;2023-03-25T12:07:08;95641.00;;;9.91;100.00
30339;BME280;795;49.296;11.348;2023-03-25T12:09:36;95609.06;;;9.15;100.00
30339;BME280;795;49.296;11.348;2023-03-25T12:12:28;95645.41;;;8.87;100.00
30339;BME280;795;49.296;11.348;2023-03-25T12:15:26;95652.97;;;8.84;100.00
30339;BME280;795;49.296;11.348;2023-03-25T12:18:15;95647.19;;;8.95;100.00
30339;BME280;795;49.296;11.348;2023-03-25T12:23:51;95638.88;;;9.12;100.00
30339;BME280;795;49.296;11.348;2023-03-25T12:30:16;95617.56;;;9.42;100.00
30339;BME280;795;49.296;11.348;2023-03-25T12:33:39;95571.75;;;9.51;100.00
30339;BME280;795;49.296;11.348;2023-03-25T12:36:24;95616.47;;;10.32;100.00
30339;BME280;795;49.296;11.348;2023-03-25T12:39:48;95614.19;;;10.86;100.00
30339;BME280;795;49.296;11.348;2023-03-25T12:43:10;95514.59;;;10.59;100.00
30339;BME280;795;49.296;11.348;2023-03-25T13:07:52;95604.03;;;11.45;85.74
30339;BME280;795;49.296;11.348;2023-03-25T13:10:30;95582.59;;;11.51;86.74
30339;BME280;795;49.296;11.348;2023-03-25T13:13:12;95575.25;;;11.17;86.33
30339;BME280;795;49.296;11.348;2023-03-25T13:18:32;95587.03;;;11.38;78.52
30339;BME280;795;49.296;11.348;2023-03-25T13:21:30;95584.97;;;10.97;80.50
30339;BME280;795;49.296;11.348;2023-03-25T13:24:14;95581.38;;;10.69;81.01
30339;BME280;795;49.296;11.348;2023-03-25T13:26:44;95499.44;;;10.31;83.24
30339;BME280;795;49.296;11.348;2023-03-25T13:29:38;95541.81;;;10.21;81.73
30339;BME280;795;49.296;11.348;2023-03-25T13:32:36;95549.94;;;10.13;83.96
30339;BME280;795;49.296;11.348;2023-03-25T13:38:47;95616.47;;;8.60;100.00
30339;BME280;795;49.296;11.348;2023-03-25T13:41:27;95563.19;;;7.73;100.00
30339;BME280;795;49.296;11.348;2023-03-25T13:44:24;95616.47;;;8.21;100.00
30339;BME280;795;49.296;11.348;2023-03-25T13:47:22;95630.31;;;8.72;100.00
30339;BME280;795;49.296;11.348;2023-03-25T13:50:03;95610.63;;;9.10;100.00
30339;BME280;795;49.296;11.348;2023-03-25T13:52:41;95573.22;;;9.16;100.00
30339;BME280;795;49.296;11.348;2023-03-25T13:55:27;95547.31;;;9.17;100.00
30339;BME280;795;49.296;11.348;2023-03-25T14:04:14;95583.28;;;10.54;98.41
30339;BME280;795;49.296;11.348;2023-03-25T14:10:36;95586.81;;;10.40;100.00
30339;BME280;795;49.296;11.348;2023-03-25T14:13:15;95569.41;;;10.15;100.00
30339;BME280;795;49.296;11.348;2023-03-25T14:16:01;95588.59;;;9.89;100.00
30339;BME280;795;49.296;11.348;2023-03-25T14:18:40;95516.38;;;9.14;100.00
30339;BME280;795;49.296;11.348;2023-03-25T14:24:17;95664.41;;;7.60;100.00
30339;BME280;795;49.296;11.348;2023-03-25T14:27:00;95674.00;;;6.64;100.00
30339;BME280;795;49.296;11.348;2023-03-25T14:29:45;95597.97;;;5.86;100.00
30339;BME280;795;49.296;11.348;2023-03-25T14:34:45;95544.22;;;5.90;100.00
30339;BME280;795;49.296;11.348;2023-03-25T14:37:23;95657.91;;;7.30;100.00
30339;BME280;795;49.296;11.348;2023-03-25T14:39:57;95660.63;;;8.09;100.00
30339;BME280;795;49.296;11.348;2023-03-25T14:42:29;95560.88;;;8.70;100.00
30339;BME280;795;49.296;11.348;2023-03-25T14:47:58;95640.66;;;10.89;100.00
30339;BME280;795;49.296;11.348;2023-03-25T14:53:00;95586.56;;;11.34;100.00
30339;BME280;795;49.296;11.348;2023-03-25T14:55:39;95553.19;;;11.22;100.00
30339;BME280;795;49.296;11.348;2023-03-25T14:58:25;95638.25;;;11.78;100.00
30339;BME280;795;49.296;11.348;2023-03-25T15:01:07;95511.28;;;11.55;98.83
30339;BME280;795;49.296;11.348;2023-03-25T15:03:42;95591.19;;;11.89;98.91
30339;BME280;795;49.296;11.348;2023-03-25T15:06:26;95638.81;;;12.70;94.85
30339;BME280;795;49.296;11.348;2023-03-25T15:08:57;95625.63;;;12.07;92.42
30339;BME280;795;49.296;11.348;2023-03-25T15:11:38;95640.56;;;12.50;92.20
30339;BME280;795;49.296;11.348;2023-03-25T15:14:25;95649.66;;;12.08;94.31
30339;BME280;795;49.296;11.348;2023-03-25T15:17:02;95633.72;;;10.94;96.99
30339;BME280;795;49.296;11.348;2023-03-25T15:22:28;95591.97;;;9.39;100.00
30339;BME280;795;49.296;11.348;2023-03-25T15:25:08;95638.56;;;9.67;100.00
30339;BME280;795;49.296;11.348;2023-03-25T15:27:58;95554.47;;;9.39;100.00
30339;BME280;795;49.296;11.348;2023-03-25T15:30:59;95542.75;;;9.03;100.00
30339;BME280;795;49.296;11.348;2023-03-25T15:34:04;95634.38;;;9.13;100.00
30339;BME280;795;49.296;11.348;2023-03-25T15:36:50;95601.09;;;8.62;100.00
30339;BME280;795;49.296;11.348;2023-03-25T15:55:52;95555.97;;;10.86;100.00
30339;BME280;795;49.296;11.348;2023-03-25T15:58:46;95613.56;;;11.47;100.00